sensor_id;sensor_type;location;lat;lon;timestamp;P1;durP1;ratioP1;P2;durP2;ratioP2
9526;SDS011;4802;51.494;6.770;2023-04-24T00:01:03;0.77;;;0.77;;
9526;SDS011;4802;51.494;6.770;2023-04-24T00:03:44;0.80;;;0.80;;
9526;SDS011;4802;51.494;6.770;2023-04-24T00:06:15;1.13;;;0.90;;
9526;SDS011;4802;51.494;6.770;2023-04-24T00:08:50;1.37;;;0.93;;
9526;SDS011;4802;51.494;6.770;2023-04-24T00:11:37;1.03;;;1.03;;
9526;SDS011;4802;51.494;6.770;2023-04-24T00:14:09;0.43;;;0.40;;
9526;SDS011;4802;51.494;6.770;2023-04-24T00:16:49;0.70;;;0.70;;
9526;SDS011;4802;51.494;6.770;2023-04-24T00:19:18;0.70;;;0.70;;
9526;SDS011;4802;51.494;6.770;2023-04-24T00:21:52;1.10;;;1.10;;
9526;SDS011;4802;51.494;6.770;2023-04-24T00:24:37;6.17;;;0.90;;
9526;SDS011;4802;51.494;6.770;2023-04-24T00:27:08;0.87;;;0.87;;
9526;SDS011;4802;51.494;6.770;2023-04-24T00:29:40;0.60;;;0.60;;
9526;SDS011;4802;51.494;6.770;2023-04-24T00:32:15;0.90;;;0.90;;
9526;SDS011;4802;51.494;6.770;2023-04-24T00:34:44;0.70;;;0.70;;
9526;SDS011;4802;51.494;6.770;2023-04-24T00:37:15;0.90;;;0.90;;
9526;SDS011;4802;51.494;6.770;2023-04-24T00:39:45;1.93;;;1.60;;
9526;SDS011;4802;51.494;6.770;2023-04-24T00:42:14;0.87;;;0.87;;
9526;SDS011;4802;51.494;6.770;2023-04-24T00:44:45;1.77;;;1.67;;
9526;SDS011;4802;51.494;6.770;2023-04-24T00:47:14;1.07;;;1.07;;
9526;SDS011;4802;51.494;6.770;2023-04-24T00:49:43;1.10;;;1.10;;
9526;SDS011;4802;51.494;6.770;2023-04-24T00:52:13;1.33;;;1.23;;
9526;SDS011;4802;51.494;6.770;2023-04-24T00:54:44;1.30;;;1.30;;
9526;SDS011;4802;51.494;6.770;2023-04-24T00:57:13;1.50;;;1.40;;
9526;SDS011;4802;51.494;6.770;2023-04-24T00:59:45;1.70;;;1.60;;
9526;SDS011;4802;51.494;6.770;2023-04-24T01:02:18;2.23;;;1.83;;
9526;SDS011;4802;51.494;6.770;2023-04-24T01:04:50;1.80;;;1.70;;
9526;SDS011;4802;51.494;6.770;2023-04-24T01:07:20;0.90;;;0.90;;
9526;SDS011;4802;51.494;6.770;2023-04-24T01:09:49;4.07;;;1.53;;
9526;SDS011;4802;51.494;6.770;2023-04-24T01:12:18;1.37;;;1.00;;
9526;SDS011;4802;51.494;6.770;2023-04-24T01:14:49;1.43;;;1.43;;
9526;SDS011;4802;51.494;6.770;2023-04-24T01:17:18;2.37;;;1.47;;
9526;SDS011;4802;51.494;6.770;2023-04-24T01:19:52;1.53;;;1.43;;
9526;SDS011;4802;51.494;6.770;2023-04-24T01:22:26;2.47;;;1.87;;
9526;SDS011;4802;51.494;6.770;2023-04-24T01:24:58;1.20;;;1.10;;
9526;SDS011;4802;51.494;6.770;2023-04-24T01:27:27;2.33;;;2.13;;
9526;SDS011;4802;51.494;6.770;2023-04-24T01:29:57;2.70;;;2.50;;
9526;SDS011;4802;51.494;6.770;2023-04-24T01:32:26;1.90;;;1.83;;
9526;SDS011;4802;51.494;6.770;2023-04-24T01:34:55;1.60;;;1.50;;
9526;SDS011;4802;51.494;6.770;2023-04-24T01:37:26;2.20;;;2.10;;
9526;SDS011;4802;51.494;6.770;2023-04-24T01:39:55;2.40;;;2.30;;
9526;SDS011;4802;51.494;6.770;2023-04-24T01:42:24;2.17;;;2.07;;
9526;SDS011;4802;51.494;6.770;2023-04-24T01:44:53;0.97;;;0.97;;
9526;SDS011;4802;51.494;6.770;2023-04-24T01:47:22;1.27;;;1.27;;
9526;SDS011;4802;51.494;6.770;2023-04-24T01:49:52;3.23;;;2.33;;
9526;SDS011;4802;51.494;6.770;2023-04-24T01:52:21;2.63;;;2.47;;
9526;SDS011;4802;51.494;6.770;2023-04-24T01:54:53;10.60;;;2.07;;
9526;SDS011;4802;51.494;6.770;2023-04-24T01:57:24;2.57;;;2.17;;
9526;SDS011;4802;51.494;6.770;2023-04-24T01:59:54;3.20;;;3.00;;
9526;SDS011;4802;51.494;6.770;2023-04-24T02:02:25;4.93;;;2.80;;
9526;SDS011;4802;51.494;6.770;2023-04-24T02:04:57;1.90;;;1.80;;
9526;SDS011;4802;51.494;6.770;2023-04-24T02:07:25;2.70;;;2.50;;
9526;SDS011;4802;51.494;6.770;2023-04-24T02:09:56;2.93;;;2.77;;
9526;SDS011;4802;51.494;6.770;2023-04-24T02:12:25;2.53;;;2.33;;
9526;SDS011;4802;51.494;6.770;2023-04-24T02:14:54;4.53;;;3.70;;
9526;SDS011;4802;51.494;6.770;2023-04-24T02:17:25;2.77;;;2.57;;
9526;SDS011;4802;51.494;6.770;2023-04-24T02:19:54;3.47;;;2.50;;
9526;SDS011;4802;51.494;6.770;2023-04-24T02:22:23;3.40;;;3.20;;
9526;SDS011;4802;51.494;6.770;2023-04-24T02:24:52;4.47;;;2.53;;
9526;SDS011;4802;51.494;6.770;2023-04-24T02:27:22;2.80;;;2.33;;
9526;SDS011;4802;51.494;6.770;2023-04-24T02:29:53;5.37;;;2.23;;
9526;SDS011;4802;51.494;6.770;2023-04-24T02:32:24;3.10;;;2.20;;
9526;SDS011;4802;51.494;6.770;2023-04-24T02:34:53;3.30;;;3.07;;
9526;SDS011;4802;51.494;6.770;2023-04-24T02:37:22;2.07;;;1.97;;
9526;SDS011;4802;51.494;6.770;2023-04-24T02:39:51;4.17;;;3.20;;
9526;SDS011;4802;51.494;6.770;2023-04-24T02:42:23;5.17;;;4.80;;
9526;SDS011;4802;51.494;6.770;2023-04-24T02:44:57;4.37;;;3.80;;
9526;SDS011;4802;51.494;6.770;2023-04-24T02:47:29;4.57;;;3.63;;
9526;SDS011;4802;51.494;6.770;2023-04-24T02:49:59;2.90;;;2.70;;
9526;SDS011;4802;51.494;6.770;2023-04-24T02:52:29;4.70;;;4.30;;
9526;SDS011;4802;51.494;6.770;2023-04-24T02:54:58;5.60;;;3.60;;
9526;SDS011;4802;51.494;6.770;2023-04-24T02:57:30;5.03;;;4.00;;
9526;SDS011;4802;51.494;6.770;2023-04-24T03:00:01;2.60;;;2.40;;
9526;SDS011;4802;51.494;6.770;2023-04-24T03:02:34;3.80;;;3.50;;
9526;SDS011;4802;51.494;6.770;2023-04-24T03:05:07;10.10;;;4.90;;
9526;SDS011;4802;51.494;6.770;2023-04-24T03:07:38;11.23;;;4.30;;
9526;SDS011;4802;51.494;6.770;2023-04-24T03:10:09;5.67;;;4.33;;
9526;SDS011;4802;51.494;6.770;2023-04-24T03:12:40;4.73;;;3.43;;
9526;SDS011;4802;51.494;6.770;2023-04-24T03:15:09;4.60;;;4.00;;
9526;SDS011;4802;51.494;6.770;2023-04-24T03:17:39;5.23;;;4.83;;
9526;SDS011;4802;51.494;6.770;2023-04-24T03:20:09;4.93;;;4.53;;
9526;SDS011;4802;51.494;6.770;2023-04-24T03:22:51;3.10;;;2.90;;
9526;SDS011;4802;51.494;6.770;2023-04-24T03:25:24;7.33;;;4.87;;
9526;SDS011;4802;51.494;6.770;2023-04-24T03:27:55;3.60;;;3.30;;
9526;SDS011;4802;51.494;6.770;2023-04-24T03:30:24;5.27;;;4.77;;
9526;SDS011;4802;51.494;6.770;2023-04-24T03:32:54;11.73;;;5.27;;
9526;SDS011;4802;51.494;6.770;2023-04-24T03:35:23;5.97;;;4.03;;
9526;SDS011;4802;51.494;6.770;2023-04-24T03:37:52;8.43;;;4.47;;
9526;SDS011;4802;51.494;6.770;2023-04-24T03:40:21;4.13;;;3.73;;
9526;SDS011;4802;51.494;6.770;2023-04-24T03:42:51;5.17;;;4.77;;
9526;SDS011;4802;51.494;6.770;2023-04-24T03:45:21;4.70;;;4.27;;
9526;SDS011;4802;51.494;6.770;2023-04-24T03:47:50;6.10;;;4.37;;
9526;SDS011;4802;51.494;6.770;2023-04-24T03:50:21;12.73;;;5.97;;
9526;SDS011;4802;51.494;6.770;2023-04-24T03:52:49;5.50;;;4.57;;
9526;SDS011;4802;51.494;6.770;2023-04-24T03:55:18;10.50;;;5.80;;
9526;SDS011;4802;51.494;6.770;2023-04-24T03:57:47;5.53;;;5.03;;
9526;SDS011;4802;51.494;6.770;2023-04-24T04:00:17;5.33;;;3.90;;
9526;SDS011;4802;51.494;6.770;2023-04-24T04:02:49;10.90;;;4.93;;
9526;SDS011;4802;51.494;6.770;2023-04-24T04:05:18;4.53;;;4.07;;
9526;SDS011;4802;51.494;6.770;2023-04-24T04:07:47;5.50;;;4.30;;
9526;SDS011;4802;51.494;6.770;2023-04-24T04:10:18;2.87;;;2.67;;
9526;SDS011;4802;51.494;6.770;2023-04-24T04:12:47;6.93;;;5.40;;
9526;SDS011;4802;51.494;6.770;2023-04-24T04:15:16;6.23;;;4.30;;
9526;SDS011;4802;51.494;6.770;2023-04-24T04:18:01;7.17;;;3.70;;
9526;SDS011;4802;51.494;6.770;2023-04-24T04:20:32;3.37;;;3.10;;
9526;SDS011;4802;51.494;6.770;2023-04-24T04:23:01;4.53;;;3.93;;
9526;SDS011;4802;51.494;6.770;2023-04-24T04:25:30;3.77;;;3.53;;
9526;SDS011;4802;51.494;6.770;2023-04-24T04:27:59;20.93;;;5.57;;
9526;SDS011;4802;51.494;6.770;2023-04-24T04:30:30;14.93;;;5.10;;
9526;SDS011;4802;51.494;6.770;2023-04-24T04:33:01;5.83;;;5.07;;
9526;SDS011;4802;51.494;6.770;2023-04-24T04:35:31;4.40;;;4.00;;
9526;SDS011;4802;51.494;6.770;2023-04-24T04:38:02;5.70;;;4.93;;
9526;SDS011;4802;51.494;6.770;2023-04-24T04:40:31;10.13;;;5.47;;
9526;SDS011;4802;51.494;6.770;2023-04-24T04:43:00;5.90;;;3.87;;
9526;SDS011;4802;51.494;6.770;2023-04-24T04:45:29;11.90;;;6.97;;
9526;SDS011;4802;51.494;6.770;2023-04-24T04:48:03;4.20;;;3.90;;
9526;SDS011;4802;51.494;6.770;2023-04-24T04:50:33;4.57;;;3.70;;
9526;SDS011;4802;51.494;6.770;2023-04-24T04:53:02;4.93;;;4.43;;
9526;SDS011;4802;51.494;6.770;2023-04-24T04:55:33;3.80;;;3.30;;
9526;SDS011;4802;51.494;6.770;2023-04-24T04:58:02;3.83;;;3.60;;
9526;SDS011;4802;51.494;6.770;2023-04-24T05:00:31;6.57;;;5.90;;
9526;SDS011;4802;51.494;6.770;2023-04-24T05:03:03;3.67;;;3.37;;
9526;SDS011;4802;51.494;6.770;2023-04-24T05:05:46;5.60;;;3.67;;
9526;SDS011;4802;51.494;6.770;2023-04-24T05:08:14;3.93;;;2.97;;
9526;SDS011;4802;51.494;6.770;2023-04-24T05:10:52;7.73;;;3.93;;
9526;SDS011;4802;51.494;6.770;2023-04-24T05:13:21;4.87;;;3.53;;
9526;SDS011;4802;51.494;6.770;2023-04-24T05:16:05;4.40;;;2.53;;
9526;SDS011;4802;51.494;6.770;2023-04-24T05:18:39;3.93;;;3.30;;
9526;SDS011;4802;51.494;6.770;2023-04-24T05:21:10;7.27;;;2.30;;
9526;SDS011;4802;51.494;6.770;2023-04-24T05:23:39;2.97;;;2.73;;
9526;SDS011;4802;51.494;6.770;2023-04-24T05:26:09;4.50;;;4.10;;
9526;SDS011;4802;51.494;6.770;2023-04-24T05:28:38;5.67;;;3.00;;
9526;SDS011;4802;51.494;6.770;2023-04-24T05:31:07;3.20;;;3.00;;
9526;SDS011;4802;51.494;6.770;2023-04-24T05:33:36;2.70;;;2.60;;
9526;SDS011;4802;51.494;6.770;2023-04-24T05:36:07;3.77;;;3.37;;
9526;SDS011;4802;51.494;6.770;2023-04-24T05:38:36;5.53;;;3.13;;
9526;SDS011;4802;51.494;6.770;2023-04-24T05:41:05;2.80;;;2.47;;
9526;SDS011;4802;51.494;6.770;2023-04-24T05:43:34;3.97;;;3.65;;
9526;SDS011;4802;51.494;6.770;2023-04-24T05:46:03;3.33;;;3.00;;
9526;SDS011;4802;51.494;6.770;2023-04-24T05:48:31;2.77;;;2.60;;
9526;SDS011;4802;51.494;6.770;2023-04-24T05:51:01;5.60;;;3.77;;
9526;SDS011;4802;51.494;6.770;2023-04-24T05:53:31;3.60;;;3.30;;
9526;SDS011;4802;51.494;6.770;2023-04-24T05:56:00;3.43;;;3.13;;
9526;SDS011;4802;51.494;6.770;2023-04-24T05:58:29;2.23;;;2.13;;
9526;SDS011;4802;51.494;6.770;2023-04-24T06:00:58;4.43;;;3.23;;
9526;SDS011;4802;51.494;6.770;2023-04-24T06:03:28;4.67;;;4.23;;
9526;SDS011;4802;51.494;6.770;2023-04-24T06:05:57;4.17;;;3.87;;
9526;SDS011;4802;51.494;6.770;2023-04-24T06:08:26;4.67;;;4.33;;
9526;SDS011;4802;51.494;6.770;2023-04-24T06:10:56;5.03;;;2.60;;
9526;SDS011;4802;51.494;6.770;2023-04-24T06:13:28;21.73;;;4.50;;
9526;SDS011;4802;51.494;6.770;2023-04-24T06:15:57;4.83;;;3.67;;
9526;SDS011;4802;51.494;6.770;2023-04-24T06:18:26;9.30;;;5.00;;
9526;SDS011;4802;51.494;6.770;2023-04-24T06:20:54;3.53;;;3.33;;
9526;SDS011;4802;51.494;6.770;2023-04-24T06:23:23;3.27;;;2.80;;
9526;SDS011;4802;51.494;6.770;2023-04-24T06:25:53;3.77;;;2.23;;
9526;SDS011;4802;51.494;6.770;2023-04-24T06:28:24;6.30;;;5.80;;
9526;SDS011;4802;51.494;6.770;2023-04-24T06:30:52;5.53;;;3.50;;
9526;SDS011;4802;51.494;6.770;2023-04-24T06:33:22;2.93;;;2.70;;
9526;SDS011;4802;51.494;6.770;2023-04-24T06:35:51;11.27;;;3.63;;
9526;SDS011;4802;51.494;6.770;2023-04-24T06:38:20;3.90;;;3.60;;
9526;SDS011;4802;51.494;6.770;2023-04-24T06:40:50;2.93;;;2.77;;
9526;SDS011;4802;51.494;6.770;2023-04-24T06:43:19;8.10;;;4.33;;
9526;SDS011;4802;51.494;6.770;2023-04-24T06:45:49;2.43;;;2.20;;
9526;SDS011;4802;51.494;6.770;2023-04-24T06:48:18;2.40;;;2.30;;
9526;SDS011;4802;51.494;6.770;2023-04-24T06:50:47;2.87;;;2.67;;
9526;SDS011;4802;51.494;6.770;2023-04-24T06:53:16;2.30;;;2.17;;
9526;SDS011;4802;51.494;6.770;2023-04-24T06:55:47;2.63;;;2.40;;
9526;SDS011;4802;51.494;6.770;2023-04-24T06:58:17;2.50;;;2.30;;
9526;SDS011;4802;51.494;6.770;2023-04-24T07:00:46;2.93;;;2.73;;
9526;SDS011;4802;51.494;6.770;2023-04-24T07:03:16;1.93;;;1.80;;
9526;SDS011;4802;51.494;6.770;2023-04-24T07:05:51;2.57;;;2.37;;
9526;SDS011;4802;51.494;6.770;2023-04-24T07:08:20;2.30;;;2.20;;
9526;SDS011;4802;51.494;6.770;2023-04-24T07:10:51;2.53;;;2.30;;
9526;SDS011;4802;51.494;6.770;2023-04-24T07:13:19;1.77;;;1.50;;
9526;SDS011;4802;51.494;6.770;2023-04-24T07:15:51;2.00;;;1.90;;
9526;SDS011;4802;51.494;6.770;2023-04-24T07:18:23;2.20;;;1.43;;
9526;SDS011;4802;51.494;6.770;2023-04-24T07:20:53;1.67;;;1.60;;
9526;SDS011;4802;51.494;6.770;2023-04-24T07:23:24;0.73;;;0.70;;
9526;SDS011;4802;51.494;6.770;2023-04-24T07:26:01;0.90;;;0.90;;
9526;SDS011;4802;51.494;6.770;2023-04-24T07:28:32;1.73;;;1.23;;
9526;SDS011;4802;51.494;6.770;2023-04-24T07:31:03;1.07;;;1.07;;
9526;SDS011;4802;51.494;6.770;2023-04-24T07:33:34;1.10;;;1.10;;
9526;SDS011;4802;51.494;6.770;2023-04-24T07:36:04;3.80;;;1.40;;
9526;SDS011;4802;51.494;6.770;2023-04-24T07:38:33;0.60;;;0.60;;
9526;SDS011;4802;51.494;6.770;2023-04-24T07:41:02;0.40;;;0.40;;
9526;SDS011;4802;51.494;6.770;2023-04-24T07:43:32;0.80;;;0.80;;
9526;SDS011;4802;51.494;6.770;2023-04-24T07:46:04;0.87;;;0.87;;
9526;SDS011;4802;51.494;6.770;2023-04-24T07:48:44;0.83;;;0.83;;
9526;SDS011;4802;51.494;6.770;2023-04-24T07:51:27;0.80;;;0.80;;
9526;SDS011;4802;51.494;6.770;2023-04-24T07:53:57;0.77;;;0.77;;
9526;SDS011;4802;51.494;6.770;2023-04-24T07:56:26;2.30;;;1.80;;
9526;SDS011;4802;51.494;6.770;2023-04-24T07:58:58;1.10;;;0.90;;
9526;SDS011;4802;51.494;6.770;2023-04-24T08:01:28;0.80;;;0.77;;
9526;SDS011;4802;51.494;6.770;2023-04-24T08:03:58;1.00;;;1.00;;
9526;SDS011;4802;51.494;6.770;2023-04-24T08:06:27;0.90;;;0.90;;
9526;SDS011;4802;51.494;6.770;2023-04-24T08:09:00;0.67;;;0.67;;
9526;SDS011;4802;51.494;6.770;2023-04-24T08:11:29;0.70;;;0.70;;
9526;SDS011;4802;51.494;6.770;2023-04-24T08:13:59;1.30;;;1.30;;
9526;SDS011;4802;51.494;6.770;2023-04-24T08:16:29;0.90;;;0.90;;
9526;SDS011;4802;51.494;6.770;2023-04-24T08:18:59;0.60;;;0.60;;
9526;SDS011;4802;51.494;6.770;2023-04-24T08:21:29;0.80;;;0.80;;
9526;SDS011;4802;51.494;6.770;2023-04-24T08:23:58;2.00;;;1.13;;
9526;SDS011;4802;51.494;6.770;2023-04-24T08:26:31;0.90;;;0.90;;
9526;SDS011;4802;51.494;6.770;2023-04-24T08:29:01;2.00;;;1.43;;
9526;SDS011;4802;51.494;6.770;2023-04-24T08:31:30;3.27;;;1.40;;
9526;SDS011;4802;51.494;6.770;2023-04-24T08:34:01;3.33;;;1.83;;
9526;SDS011;4802;51.494;6.770;2023-04-24T08:36:31;1.40;;;1.30;;
9526;SDS011;4802;51.494;6.770;2023-04-24T08:39:12;1.20;;;1.20;;
9526;SDS011;4802;51.494;6.770;2023-04-24T08:41:41;7.40;;;3.00;;
9526;SDS011;4802;51.494;6.770;2023-04-24T08:44:12;0.70;;;0.70;;
9526;SDS011;4802;51.494;6.770;2023-04-24T08:46:43;1.93;;;1.23;;
9526;SDS011;4802;51.494;6.770;2023-04-24T08:49:16;1.73;;;1.60;;
9526;SDS011;4802;51.494;6.770;2023-04-24T08:51:46;4.20;;;2.33;;
9526;SDS011;4802;51.494;6.770;2023-04-24T08:54:16;3.47;;;1.40;;
9526;SDS011;4802;51.494;6.770;2023-04-24T08:56:47;4.00;;;1.00;;
9526;SDS011;4802;51.494;6.770;2023-04-24T08:59:18;1.70;;;1.60;;
9526;SDS011;4802;51.494;6.770;2023-04-24T09:01:47;1.77;;;1.77;;
9526;SDS011;4802;51.494;6.770;2023-04-24T09:04:19;0.97;;;0.97;;
9526;SDS011;4802;51.494;6.770;2023-04-24T09:06:51;1.30;;;1.13;;
9526;SDS011;4802;51.494;6.770;2023-04-24T09:09:21;2.47;;;1.93;;
9526;SDS011;4802;51.494;6.770;2023-04-24T09:11:51;4.60;;;2.57;;
9526;SDS011;4802;51.494;6.770;2023-04-24T09:14:22;1.90;;;1.80;;
9526;SDS011;4802;51.494;6.770;2023-04-24T09:16:53;3.13;;;2.93;;
9526;SDS011;4802;51.494;6.770;2023-04-24T09:19:25;2.33;;;2.23;;
9526;SDS011;4802;51.494;6.770;2023-04-24T09:21:56;4.00;;;3.00;;
9526;SDS011;4802;51.494;6.770;2023-04-24T09:24:26;2.60;;;2.40;;
9526;SDS011;4802;51.494;6.770;2023-04-24T09:26:56;4.30;;;2.73;;
9526;SDS011;4802;51.494;6.770;2023-04-24T09:29:30;3.53;;;3.20;;
9526;SDS011;4802;51.494;6.770;2023-04-24T09:32:08;2.40;;;2.30;;
9526;SDS011;4802;51.494;6.770;2023-04-24T09:35:04;5.03;;;2.73;;
9526;SDS011;4802;51.494;6.770;2023-04-24T09:37:35;11.47;;;3.37;;
9526;SDS011;4802;51.494;6.770;2023-04-24T09:40:15;8.33;;;3.17;;
9526;SDS011;4802;51.494;6.770;2023-04-24T09:42:54;3.20;;;2.77;;
9526;SDS011;4802;51.494;6.770;2023-04-24T09:45:27;16.10;;;4.40;;
9526;SDS011;4802;51.494;6.770;2023-04-24T09:47:57;3.47;;;2.50;;
9526;SDS011;4802;51.494;6.770;2023-04-24T09:50:33;4.60;;;2.67;;
9526;SDS011;4802;51.494;6.770;2023-04-24T09:53:04;3.60;;;2.90;;
9526;SDS011;4802;51.494;6.770;2023-04-24T09:55:38;5.60;;;3.13;;
9526;SDS011;4802;51.494;6.770;2023-04-24T09:58:08;3.40;;;3.30;;
9526;SDS011;4802;51.494;6.770;2023-04-24T10:00:38;8.43;;;3.60;;
9526;SDS011;4802;51.494;6.770;2023-04-24T10:03:08;3.43;;;3.13;;
9526;SDS011;4802;51.494;6.770;2023-04-24T10:05:40;5.90;;;3.30;;
9526;SDS011;4802;51.494;6.770;2023-04-24T10:08:11;3.33;;;3.03;;
9526;SDS011;4802;51.494;6.770;2023-04-24T10:10:42;3.20;;;2.57;;
9526;SDS011;4802;51.494;6.770;2023-04-24T10:13:14;12.03;;;3.40;;
9526;SDS011;4802;51.494;6.770;2023-04-24T10:15:43;4.03;;;2.97;;
9526;SDS011;4802;51.494;6.770;2023-04-24T10:18:13;3.80;;;3.50;;
9526;SDS011;4802;51.494;6.770;2023-04-24T10:20:50;2.90;;;2.70;;
9526;SDS011;4802;51.494;6.770;2023-04-24T10:23:36;5.80;;;3.80;;
9526;SDS011;4802;51.494;6.770;2023-04-24T10:26:07;8.83;;;2.40;;
9526;SDS011;4802;51.494;6.770;2023-04-24T10:28:44;8.27;;;3.30;;
9526;SDS011;4802;51.494;6.770;2023-04-24T10:31:14;2.93;;;2.70;;
9526;SDS011;4802;51.494;6.770;2023-04-24T10:33:45;2.10;;;2.00;;
9526;SDS011;4802;51.494;6.770;2023-04-24T10:36:18;4.53;;;3.07;;
9526;SDS011;4802;51.494;6.770;2023-04-24T10:38:47;7.20;;;2.10;;
9526;SDS011;4802;51.494;6.770;2023-04-24T10:41:17;3.30;;;2.20;;
9526;SDS011;4802;51.494;6.770;2023-04-24T10:44:03;6.03;;;2.47;;
9526;SDS011;4802;51.494;6.770;2023-04-24T10:46:33;4.70;;;2.10;;
9526;SDS011;4802;51.494;6.770;2023-04-24T10:49:04;1.70;;;1.63;;
9526;SDS011;4802;51.494;6.770;2023-04-24T10:51:47;3.93;;;2.57;;
9526;SDS011;4802;51.494;6.770;2023-04-24T10:54:23;3.43;;;1.20;;
9526;SDS011;4802;51.494;6.770;2023-04-24T10:56:53;1.60;;;1.47;;
9526;SDS011;4802;51.494;6.770;2023-04-24T10:59:24;5.83;;;2.10;;
9526;SDS011;4802;51.494;6.770;2023-04-24T11:01:53;4.50;;;2.27;;
9526;SDS011;4802;51.494;6.770;2023-04-24T11:04:29;6.20;;;3.13;;
9526;SDS011;4802;51.494;6.770;2023-04-24T11:07:01;4.40;;;2.23;;
9526;SDS011;4802;51.494;6.770;2023-04-24T11:09:31;2.77;;;2.17;;
9526;SDS011;4802;51.494;6.770;2023-04-24T11:12:03;5.03;;;2.47;;
9526;SDS011;4802;51.494;6.770;2023-04-24T11:17:31;8.13;;;3.30;;
9526;SDS011;4802;51.494;6.770;2023-04-24T11:20:03;3.63;;;2.40;;
9526;SDS011;4802;51.494;6.770;2023-04-24T11:22:54;2.20;;;2.10;;
9526;SDS011;4802;51.494;6.770;2023-04-24T11:25:24;2.30;;;1.73;;
9526;SDS011;4802;51.494;6.770;2023-04-24T11:28:02;6.17;;;1.50;;
9526;SDS011;4802;51.494;6.770;2023-04-24T11:30:33;3.17;;;1.60;;
9526;SDS011;4802;51.494;6.770;2023-04-24T11:33:04;20.53;;;1.93;;
9526;SDS011;4802;51.494;6.770;2023-04-24T11:35:39;1.77;;;1.67;;
9526;SDS011;4802;51.494;6.770;2023-04-24T11:38:12;3.27;;;2.43;;
9526;SDS011;4802;51.494;6.770;2023-04-24T11:40:45;7.80;;;2.07;;
9526;SDS011;4802;51.494;6.770;2023-04-24T11:43:16;3.87;;;2.53;;
9526;SDS011;4802;51.494;6.770;2023-04-24T11:45:47;1.90;;;1.80;;
9526;SDS011;4802;51.494;6.770;2023-04-24T11:48:18;11.17;;;2.13;;
9526;SDS011;4802;51.494;6.770;2023-04-24T11:50:49;3.43;;;1.23;;
9526;SDS011;4802;51.494;6.770;2023-04-24T11:53:26;3.33;;;2.43;;
9526;SDS011;4802;51.494;6.770;2023-04-24T11:55:55;6.00;;;3.43;;
9526;SDS011;4802;51.494;6.770;2023-04-24T11:58:24;11.83;;;3.10;;
9526;SDS011;4802;51.494;6.770;2023-04-24T12:00:57;3.53;;;2.10;;
9526;SDS011;4802;51.494;6.770;2023-04-24T12:03:29;2.40;;;1.70;;
9526;SDS011;4802;51.494;6.770;2023-04-24T12:06:08;9.90;;;1.53;;
9526;SDS011;4802;51.494;6.770;2023-04-24T12:08:40;1.30;;;1.30;;
9526;SDS011;4802;51.494;6.770;2023-04-24T12:11:16;6.00;;;1.70;;
9526;SDS011;4802;51.494;6.770;2023-04-24T12:13:53;2.03;;;1.83;;
9526;SDS011;4802;51.494;6.770;2023-04-24T12:16:23;3.87;;;1.87;;
9526;SDS011;4802;51.494;6.770;2023-04-24T12:18:53;2.60;;;2.40;;
9526;SDS011;4802;51.494;6.770;2023-04-24T12:21:30;3.40;;;1.70;;
9526;SDS011;4802;51.494;6.770;2023-04-24T12:24:08;3.07;;;2.70;;
9526;SDS011;4802;51.494;6.770;2023-04-24T12:26:56;1.57;;;1.57;;
9526;SDS011;4802;51.494;6.770;2023-04-24T12:29:44;4.10;;;1.80;;
9526;SDS011;4802;51.494;6.770;2023-04-24T12:32:23;2.00;;;1.90;;
9526;SDS011;4802;51.494;6.770;2023-04-24T12:34:55;6.20;;;1.80;;
9526;SDS011;4802;51.494;6.770;2023-04-24T12:37:32;4.00;;;1.90;;
9526;SDS011;4802;51.494;6.770;2023-04-24T12:40:25;1.77;;;1.67;;
9526;SDS011;4802;51.494;6.770;2023-04-24T12:43:12;7.00;;;2.17;;
9526;SDS011;4802;51.494;6.770;2023-04-24T12:45:44;4.60;;;2.20;;
9526;SDS011;4802;51.494;6.770;2023-04-24T12:48:14;3.00;;;2.30;;
9526;SDS011;4802;51.494;6.770;2023-04-24T12:50:44;2.93;;;2.70;;
9526;SDS011;4802;51.494;6.770;2023-04-24T12:53:19;2.90;;;1.90;;
9526;SDS011;4802;51.494;6.770;2023-04-24T12:55:51;1.67;;;1.57;;
9526;SDS011;4802;51.494;6.770;2023-04-24T12:58:20;2.77;;;1.17;;
9526;SDS011;4802;51.494;6.770;2023-04-24T13:00:52;11.40;;;2.30;;
9526;SDS011;4802;51.494;6.770;2023-04-24T13:03:22;4.57;;;3.20;;
9526;SDS011;4802;51.494;6.770;2023-04-24T13:05:53;1.50;;;1.40;;
9526;SDS011;4802;51.494;6.770;2023-04-24T13:08:25;4.73;;;2.03;;
9526;SDS011;4802;51.494;6.770;2023-04-24T13:10:59;2.00;;;1.07;;
9526;SDS011;4802;51.494;6.770;2023-04-24T13:13:30;2.70;;;1.73;;
9526;SDS011;4802;51.494;6.770;2023-04-24T13:16:00;2.17;;;1.60;;
9526;SDS011;4802;51.494;6.770;2023-04-24T13:18:31;2.60;;;2.10;;
9526;SDS011;4802;51.494;6.770;2023-04-24T13:21:01;5.43;;;1.47;;
9526;SDS011;4802;51.494;6.770;2023-04-24T13:23:38;1.27;;;1.10;;
9526;SDS011;4802;51.494;6.770;2023-04-24T13:26:12;1.57;;;1.47;;
9526;SDS011;4802;51.494;6.770;2023-04-24T13:28:44;2.27;;;1.20;;
9526;SDS011;4802;51.494;6.770;2023-04-24T13:31:19;2.57;;;1.33;;
9526;SDS011;4802;51.494;6.770;2023-04-24T13:33:49;4.80;;;1.77;;
9526;SDS011;4802;51.494;6.770;2023-04-24T13:36:18;2.27;;;2.13;;
9526;SDS011;4802;51.494;6.770;2023-04-24T13:38:50;4.77;;;2.50;;
9526;SDS011;4802;51.494;6.770;2023-04-24T13:41:36;5.33;;;2.10;;
9526;SDS011;4802;51.494;6.770;2023-04-24T13:44:11;1.27;;;1.27;;
9526;SDS011;4802;51.494;6.770;2023-04-24T13:46:44;0.77;;;0.77;;
9526;SDS011;4802;51.494;6.770;2023-04-24T13:49:14;4.00;;;1.03;;
9526;SDS011;4802;51.494;6.770;2023-04-24T13:52:09;1.20;;;1.10;;
9526;SDS011;4802;51.494;6.770;2023-04-24T13:54:47;0.70;;;0.70;;
9526;SDS011;4802;51.494;6.770;2023-04-24T13:57:32;10.17;;;2.00;;
9526;SDS011;4802;51.494;6.770;2023-04-24T14:00:01;1.27;;;1.17;;
9526;SDS011;4802;51.494;6.770;2023-04-24T14:02:31;12.30;;;6.13;;
9526;SDS011;4802;51.494;6.770;2023-04-24T14:05:01;1.43;;;1.33;;
9526;SDS011;4802;51.494;6.770;2023-04-24T14:07:30;1.93;;;1.43;;
9526;SDS011;4802;51.494;6.770;2023-04-24T14:10:00;1.83;;;1.47;;
9526;SDS011;4802;51.494;6.770;2023-04-24T14:15:16;1.67;;;1.57;;
9526;SDS011;4802;51.494;6.770;2023-04-24T14:17:45;1.33;;;1.20;;
9526;SDS011;4802;51.494;6.770;2023-04-24T14:20:53;1.70;;;1.60;;
9526;SDS011;4802;51.494;6.770;2023-04-24T14:23:26;1.70;;;1.13;;
9526;SDS011;4802;51.494;6.770;2023-04-24T14:25:55;1.70;;;1.60;;
9526;SDS011;4802;51.494;6.770;2023-04-24T14:28:25;2.20;;;2.00;;
9526;SDS011;4802;51.494;6.770;2023-04-24T14:31:00;1.40;;;1.30;;
9526;SDS011;4802;51.494;6.770;2023-04-24T14:33:29;1.40;;;1.30;;
9526;SDS011;4802;51.494;6.770;2023-04-24T14:36:01;4.80;;;1.77;;
9526;SDS011;4802;51.494;6.770;2023-04-24T14:38:49;1.53;;;1.43;;
9526;SDS011;4802;51.494;6.770;2023-04-24T14:41:22;2.80;;;1.10;;
9526;SDS011;4802;51.494;6.770;2023-04-24T14:43:57;1.30;;;1.20;;
9526;SDS011;4802;51.494;6.770;2023-04-24T14:46:30;1.80;;;1.40;;
9526;SDS011;4802;51.494;6.770;2023-04-24T14:49:00;9.70;;;1.77;;
9526;SDS011;4802;51.494;6.770;2023-04-24T14:51:50;1.33;;;1.27;;
9526;SDS011;4802;51.494;6.770;2023-04-24T14:54:21;4.30;;;1.53;;
9526;SDS011;4802;51.494;6.770;2023-04-24T14:56:56;5.07;;;3.33;;
9526;SDS011;4802;51.494;6.770;2023-04-24T14:59:31;5.63;;;1.50;;
9526;SDS011;4802;51.494;6.770;2023-04-24T15:02:02;1.13;;;1.13;;
9526;SDS011;4802;51.494;6.770;2023-04-24T15:04:42;1.40;;;1.30;;
9526;SDS011;4802;51.494;6.770;2023-04-24T15:07:12;1.80;;;1.70;;
9526;SDS011;4802;51.494;6.770;2023-04-24T15:09:42;2.10;;;2.00;;
9526;SDS011;4802;51.494;6.770;2023-04-24T15:12:13;2.17;;;1.90;;
9526;SDS011;4802;51.494;6.770;2023-04-24T15:14:43;1.90;;;1.80;;
9526;SDS011;4802;51.494;6.770;2023-04-24T15:17:14;1.80;;;1.53;;
9526;SDS011;4802;51.494;6.770;2023-04-24T15:19:46;2.70;;;2.60;;
9526;SDS011;4802;51.494;6.770;2023-04-24T15:22:19;3.47;;;1.20;;
9526;SDS011;4802;51.494;6.770;2023-04-24T15:24:49;9.63;;;1.63;;
9526;SDS011;4802;51.494;6.770;2023-04-24T15:27:18;1.63;;;1.53;;
9526;SDS011;4802;51.494;6.770;2023-04-24T15:29:48;2.87;;;1.33;;
9526;SDS011;4802;51.494;6.770;2023-04-24T15:32:22;0.80;;;0.80;;
9526;SDS011;4802;51.494;6.770;2023-04-24T15:34:52;2.20;;;2.00;;
9526;SDS011;4802;51.494;6.770;2023-04-24T15:37:34;11.60;;;1.43;;
9526;SDS011;4802;51.494;6.770;2023-04-24T15:40:07;2.93;;;1.53;;
9526;SDS011;4802;51.494;6.770;2023-04-24T15:42:50;0.90;;;0.80;;
9526;SDS011;4802;51.494;6.770;2023-04-24T15:45:23;1.13;;;1.10;;
9526;SDS011;4802;51.494;6.770;2023-04-24T15:47:57;10.03;;;2.50;;
9526;SDS011;4802;51.494;6.770;2023-04-24T15:50:27;2.43;;;2.23;;